sensor_id;sensor_type;location;lat;lon;timestamp;pressure;altitude;pressure_sealevel;temperature;humidity
73205;BME280;61413;-27.702;153.216;2024-03-17T00:02:25;101469.79;;;24.39;40.66
73205;BME280;61413;-27.702;153.216;2024-03-17T00:04:53;101463.20;;;24.26;41.79
73205;BME280;61413;-27.702;153.216;2024-03-17T00:07:21;101464.98;;;24.35;42.78
73205;BME280;61413;-27.702;153.216;2024-03-17T00:09:50;101460.57;;;24.50;42.37
73205;BME280;61413;-27.702;153.216;2024-03-17T00:12:14;101464.76;;;25.49;41.59
73205;BME280;61413;-27.702;153.216;2024-03-17T00:17:42;101458.73;;;25.57;40.55
73205;BME280;61413;-27.702;153.216;2024-03-17T00:20:08;101454.53;;;26.10;39.94
73205;BME280;61413;-27.702;153.216;2024-03-17T00:22:32;101454.24;;;26.48;39.56
73205;BME280;61413;-27.702;153.216;2024-03-17T00:24:59;101442.18;;;26.46;38.97
73205;BME280;61413;-27.702;153.216;2024-03-17T00:27:27;101438.69;;;26.60;38.80
73205;BME280;61413;-27.702;153.216;2024-03-17T00:29:55;101438.25;;;26.59;38.50
73205;BME280;61413;-27.702;153.216;2024-03-17T00:32:23;101435.41;;;26.74;37.48
73205;BME280;61413;-27.702;153.216;2024-03-17T00:34:51;101442.54;;;26.74;37.22
73205;BME280;61413;-27.702;153.216;2024-03-17T00:37:19;101438.76;;;27.05;37.02
73205;BME280;61413;-27.702;153.216;2024-03-17T00:39:46;101433.79;;;26.67;37.12
73205;BME280;61413;-27.702;153.216;2024-03-17T00:42:15;101438.45;;;27.34;36.45
73205;BME280;61413;-27.702;153.216;2024-03-17T00:44:43;101433.88;;;27.69;36.61
73205;BME280;61413;-27.702;153.216;2024-03-17T00:47:10;101432.36;;;28.15;36.53
73205;BME280;61413;-27.702;153.216;2024-03-17T00:49:39;101436.95;;;27.16;36.36
73205;BME280;61413;-27.702;153.216;2024-03-17T00:52:07;101425.32;;;27.35;36.08
73205;BME280;61413;-27.702;153.216;2024-03-17T00:54:35;101426.93;;;27.05;36.51
73205;BME280;61413;-27.702;153.216;2024-03-17T00:57:03;101424.20;;;26.71;37.19
73205;BME280;61413;-27.702;153.216;2024-03-17T00:59:30;101422.13;;;26.87;37.49
73205;BME280;61413;-27.702;153.216;2024-03-17T01:01:59;101421.34;;;27.05;37.38
73205;BME280;61413;-27.702;153.216;2024-03-17T01:04:27;101415.43;;;27.16;37.42
73205;BME280;61413;-27.702;153.216;2024-03-17T01:06:54;101415.27;;;27.11;37.21
73205;BME280;61413;-27.702;153.216;2024-03-17T01:09:22;101413.52;;;26.73;36.83
73205;BME280;61413;-27.702;153.216;2024-03-17T01:11:50;101416.21;;;26.70;36.76
73205;BME280;61413;-27.702;153.216;2024-03-17T01:14:23;101411.79;;;26.68;36.33
73205;BME280;61413;-27.702;153.216;2024-03-17T01:16:44;101407.18;;;27.12;36.45
73205;BME280;61413;-27.702;153.216;2024-03-17T01:19:13;101401.72;;;26.61;36.02
73205;BME280;61413;-27.702;153.216;2024-03-17T01:21:37;101395.03;;;26.55;36.11
73205;BME280;61413;-27.702;153.216;2024-03-17T01:24:05;101390.64;;;26.38;36.27
73205;BME280;61413;-27.702;153.216;2024-03-17T01:26:33;101385.41;;;26.56;36.41
73205;BME280;61413;-27.702;153.216;2024-03-17T01:29:01;101377.54;;;26.56;36.66
73205;BME280;61413;-27.702;153.216;2024-03-17T01:31:29;101371.52;;;26.45;36.49
73205;BME280;61413;-27.702;153.216;2024-03-17T01:33:57;101362.41;;;26.77;36.31
73205;BME280;61413;-27.702;153.216;2024-03-17T01:36:25;101358.07;;;27.15;36.20
73205;BME280;61413;-27.702;153.216;2024-03-17T01:38:53;101351.66;;;27.09;36.24
73205;BME280;61413;-27.702;153.216;2024-03-17T01:41:21;101351.38;;;27.34;36.15
73205;BME280;61413;-27.702;153.216;2024-03-17T01:43:49;101349.18;;;27.49;36.11
73205;BME280;61413;-27.702;153.216;2024-03-17T01:47:16;101340.95;;;27.66;35.79
73205;BME280;61413;-27.702;153.216;2024-03-17T01:49:40;101341.15;;;27.39;35.65
73205;BME280;61413;-27.702;153.216;2024-03-17T01:52:08;101335.81;;;27.42;35.67
73205;BME280;61413;-27.702;153.216;2024-03-17T01:54:34;101325.84;;;26.95;35.70
73205;BME280;61413;-27.702;153.216;2024-03-17T01:56:59;101321.51;;;27.09;35.95
73205;BME280;61413;-27.702;153.216;2024-03-17T01:59:23;101328.33;;;26.90;35.90
73205;BME280;61413;-27.702;153.216;2024-03-17T02:01:51;101318.16;;;28.06;35.33
73205;BME280;61413;-27.702;153.216;2024-03-17T02:04:19;101313.79;;;28.16;35.48
73205;BME280;61413;-27.702;153.216;2024-03-17T02:06:47;101321.28;;;27.47;35.53
73205;BME280;61413;-27.702;153.216;2024-03-17T02:09:15;101316.27;;;27.43;35.27
73205;BME280;61413;-27.702;153.216;2024-03-17T02:11:43;101312.43;;;28.00;34.87
73205;BME280;61413;-27.702;153.216;2024-03-17T02:14:11;101307.77;;;27.85;34.97
73205;BME280;61413;-27.702;153.216;2024-03-17T02:16:39;101303.72;;;28.04;34.84
73205;BME280;61413;-27.702;153.216;2024-03-17T02:19:07;101299.44;;;28.03;34.82
73205;BME280;61413;-27.702;153.216;2024-03-17T02:21:34;101293.40;;;28.16;34.71
73205;BME280;61413;-27.702;153.216;2024-03-17T02:24:04;101294.62;;;28.15;34.72
73205;BME280;61413;-27.702;153.216;2024-03-17T02:27:10;101286.62;;;28.28;34.33
73205;BME280;61413;-27.702;153.216;2024-03-17T02:29:39;101285.70;;;28.40;34.51
73205;BME280;61413;-27.702;153.216;2024-03-17T02:32:07;101280.00;;;27.85;34.41
73205;BME280;61413;-27.702;153.216;2024-03-17T02:34:32;101277.69;;;28.53;34.08
73205;BME280;61413;-27.702;153.216;2024-03-17T02:37:00;101266.74;;;28.78;33.87
73205;BME280;61413;-27.702;153.216;2024-03-17T02:39:28;101265.28;;;28.82;33.94
73205;BME280;61413;-27.702;153.216;2024-03-17T02:41:56;101258.90;;;28.44;33.98
73205;BME280;61413;-27.702;153.216;2024-03-17T02:44:24;101259.43;;;29.05;33.43
73205;BME280;61413;-27.702;153.216;2024-03-17T02:46:52;101250.54;;;28.72;33.55
73205;BME280;61413;-27.702;153.216;2024-03-17T02:49:19;101255.17;;;28.23;33.74
73205;BME280;61413;-27.702;153.216;2024-03-17T02:51:47;101251.17;;;27.92;34.01
73205;BME280;61413;-27.702;153.216;2024-03-17T02:54:15;101248.10;;;27.69;34.65
73205;BME280;61413;-27.702;153.216;2024-03-17T02:56:42;101241.41;;;27.52;34.95
73205;BME280;61413;-27.702;153.216;2024-03-17T02:59:10;101235.96;;;27.32;35.10
73205;BME280;61413;-27.702;153.216;2024-03-17T03:01:38;101235.55;;;27.37;35.30
73205;BME280;61413;-27.702;153.216;2024-03-17T03:04:07;101233.84;;;27.17;35.47
73205;BME280;61413;-27.702;153.216;2024-03-17T03:06:35;101227.83;;;27.30;35.55
73205;BME280;61413;-27.702;153.216;2024-03-17T03:09:03;101219.84;;;27.33;35.36
73205;BME280;61413;-27.702;153.216;2024-03-17T03:11:31;101214.87;;;27.63;35.46
73205;BME280;61413;-27.702;153.216;2024-03-17T03:13:59;101221.66;;;27.47;35.51
73205;BME280;61413;-27.702;153.216;2024-03-17T03:16:27;101209.32;;;27.62;35.42
73205;BME280;61413;-27.702;153.216;2024-03-17T03:18:55;101212.83;;;27.34;35.73
73205;BME280;61413;-27.702;153.216;2024-03-17T03:21:22;101205.91;;;27.10;36.01
73205;BME280;61413;-27.702;153.216;2024-03-17T03:23:50;101206.82;;;26.69;36.47
73205;BME280;61413;-27.702;153.216;2024-03-17T03:26:19;101207.61;;;26.82;37.06
73205;BME280;61413;-27.702;153.216;2024-03-17T03:28:44;101207.65;;;26.66;37.43
73205;BME280;61413;-27.702;153.216;2024-03-17T03:31:13;101205.77;;;26.08;38.00
73205;BME280;61413;-27.702;153.216;2024-03-17T03:33:38;101209.26;;;26.30;38.11
73205;BME280;61413;-27.702;153.216;2024-03-17T03:36:10;101210.52;;;26.07;38.07
73205;BME280;61413;-27.702;153.216;2024-03-17T03:38:34;101201.15;;;25.77;38.34
73205;BME280;61413;-27.702;153.216;2024-03-17T03:41:08;101205.94;;;25.78;38.33
73205;BME280;61413;-27.702;153.216;2024-03-17T03:43:28;101212.27;;;26.06;38.18
73205;BME280;61413;-27.702;153.216;2024-03-17T03:45:56;101209.69;;;26.35;38.04
73205;BME280;61413;-27.702;153.216;2024-03-17T03:48:24;101204.54;;;26.54;37.89
73205;BME280;61413;-27.702;153.216;2024-03-17T03:50:52;101209.73;;;27.00;37.68
73205;BME280;61413;-27.702;153.216;2024-03-17T03:54:47;101200.08;;;27.23;37.41
73205;BME280;61413;-27.702;153.216;2024-03-17T03:57:14;101194.44;;;26.79;36.97
73205;BME280;61413;-27.702;153.216;2024-03-17T03:59:42;101194.35;;;27.40;36.58
73205;BME280;61413;-27.702;153.216;2024-03-17T04:02:09;101191.06;;;27.24;36.39
73205;BME280;61413;-27.702;153.216;2024-03-17T04:04:37;101186.24;;;27.25;36.11
73205;BME280;61413;-27.702;153.216;2024-03-17T04:07:05;101185.21;;;27.47;35.76
73205;BME280;61413;-27.702;153.216;2024-03-17T04:09:33;101177.39;;;27.42;35.07
73205;BME280;61413;-27.702;153.216;2024-03-17T04:12:00;101177.05;;;27.64;35.05
73205;BME280;61413;-27.702;153.216;2024-03-17T04:14:28;101172.69;;;27.58;34.64
73205;BME280;61413;-27.702;153.216;2024-03-17T04:16:53;101175.24;;;27.51;35.01
73205;BME280;61413;-27.702;153.216;2024-03-17T04:19:22;101169.16;;;27.93;34.91
73205;BME280;61413;-27.702;153.216;2024-03-17T04:21:50;101160.12;;;27.92;35.14
73205;BME280;61413;-27.702;153.216;2024-03-17T04:26:33;101165.57;;;26.85;37.56
73205;BME280;61413;-27.702;153.216;2024-03-17T04:29:00;101164.24;;;26.92;37.03
73205;BME280;61413;-27.702;153.216;2024-03-17T04:31:28;101162.24;;;27.00;36.90
73205;BME280;61413;-27.702;153.216;2024-03-17T04:33:56;101159.88;;;26.99;36.81
73205;BME280;61413;-27.702;153.216;2024-03-17T04:36:24;101163.11;;;27.11;37.19
73205;BME280;61413;-27.702;153.216;2024-03-17T04:38:52;101158.49;;;26.73;38.27
73205;BME280;61413;-27.702;153.216;2024-03-17T04:41:20;101152.97;;;27.13;38.65
73205;BME280;61413;-27.702;153.216;2024-03-17T04:43:48;101143.70;;;27.18;38.51
73205;BME280;61413;-27.702;153.216;2024-03-17T04:46:15;101139.58;;;27.23;38.18
73205;BME280;61413;-27.702;153.216;2024-03-17T04:48:43;101142.92;;;27.55;37.76
73205;BME280;61413;-27.702;153.216;2024-03-17T04:51:17;101141.49;;;27.60;36.92
73205;BME280;61413;-27.702;153.216;2024-03-17T04:53:37;101145.37;;;27.20;36.80
73205;BME280;61413;-27.702;153.216;2024-03-17T04:56:05;101153.18;;;27.29;37.01
73205;BME280;61413;-27.702;153.216;2024-03-17T04:58:29;101150.61;;;27.47;36.92
73205;BME280;61413;-27.702;153.216;2024-03-17T05:03:53;101152.42;;;27.00;37.77
73205;BME280;61413;-27.702;153.216;2024-03-17T05:07:19;101152.17;;;26.98;38.21
73205;BME280;61413;-27.702;153.216;2024-03-17T05:09:47;101150.59;;;26.79;38.27
73205;BME280;61413;-27.702;153.216;2024-03-17T05:12:14;101147.28;;;27.00;38.31
73205;BME280;61413;-27.702;153.216;2024-03-17T05:14:42;101150.98;;;27.08;38.39
73205;BME280;61413;-27.702;153.216;2024-03-17T05:18:51;101155.85;;;26.70;38.48
73205;BME280;61413;-27.702;153.216;2024-03-17T05:21:15;101154.16;;;26.69;38.61
73205;BME280;61413;-27.702;153.216;2024-03-17T05:23:43;101157.63;;;26.60;38.84
73205;BME280;61413;-27.702;153.216;2024-03-17T05:26:12;101158.95;;;26.50;39.09
73205;BME280;61413;-27.702;153.216;2024-03-17T05:28:40;101155.72;;;26.47;39.25
73205;BME280;61413;-27.702;153.216;2024-03-17T05:31:09;101152.47;;;26.78;39.31
73205;BME280;61413;-27.702;153.216;2024-03-17T05:35:27;101153.26;;;26.53;38.87
73205;BME280;61413;-27.702;153.216;2024-03-17T05:37:51;101154.19;;;26.25;38.74
73205;BME280;61413;-27.702;153.216;2024-03-17T05:40:19;101149.11;;;26.31;38.29
73205;BME280;61413;-27.702;153.216;2024-03-17T05:42:47;101149.03;;;26.35;38.42
73205;BME280;61413;-27.702;153.216;2024-03-17T05:45:15;101148.79;;;26.19;38.34
73205;BME280;61413;-27.702;153.216;2024-03-17T05:47:44;101152.58;;;25.82;38.35
73205;BME280;61413;-27.702;153.216;2024-03-17T05:50:12;101145.86;;;25.47;38.62
73205;BME280;61413;-27.702;153.216;2024-03-17T05:52:40;101149.94;;;25.64;38.75
73205;BME280;61413;-27.702;153.216;2024-03-17T05:55:09;101147.06;;;25.66;38.91
73205;BME280;61413;-27.702;153.216;2024-03-17T05:57:37;101146.42;;;25.81;38.86
73205;BME280;61413;-27.702;153.216;2024-03-17T06:00:06;101147.50;;;25.62;38.90
73205;BME280;61413;-27.702;153.216;2024-03-17T06:02:30;101150.84;;;25.66;38.71
73205;BME280;61413;-27.702;153.216;2024-03-17T06:04:59;101153.48;;;26.13;38.53
73205;BME280;61413;-27.702;153.216;2024-03-17T06:07:27;101157.74;;;26.70;38.38
73205;BME280;61413;-27.702;153.216;2024-03-17T06:09:55;101158.51;;;26.33;38.46
73205;BME280;61413;-27.702;153.216;2024-03-17T06:15:17;101160.49;;;25.00;39.73
73205;BME280;61413;-27.702;153.216;2024-03-17T06:17:45;101157.10;;;24.33;41.20
73205;BME280;61413;-27.702;153.216;2024-03-17T06:20:13;101149.04;;;24.06;42.51
73205;BME280;61413;-27.702;153.216;2024-03-17T06:22:42;101148.87;;;23.68;43.17
73205;BME280;61413;-27.702;153.216;2024-03-17T06:25:10;101152.22;;;23.44;43.79
73205;BME280;61413;-27.702;153.216;2024-03-17T06:27:38;101149.04;;;23.14;44.47
73205;BME280;61413;-27.702;153.216;2024-03-17T06:30:09;101148.63;;;23.47;44.56
73205;BME280;61413;-27.702;153.216;2024-03-17T06:32:34;101147.17;;;23.59;44.41
73205;BME280;61413;-27.702;153.216;2024-03-17T06:35:04;101144.04;;;23.95;44.24
73205;BME280;61413;-27.702;153.216;2024-03-17T06:37:28;101148.34;;;24.48;44.14
73205;BME280;61413;-27.702;153.216;2024-03-17T06:41:06;101155.88;;;24.50;44.27
73205;BME280;61413;-27.702;153.216;2024-03-17T06:45:30;101162.69;;;24.24;44.43
73205;BME280;61413;-27.702;153.216;2024-03-17T06:47:58;101160.02;;;24.45;44.28
73205;BME280;61413;-27.702;153.216;2024-03-17T06:50:26;101165.01;;;24.46;44.47
73205;BME280;61413;-27.702;153.216;2024-03-17T06:52:56;101164.12;;;24.67;44.38
73205;BME280;61413;-27.702;153.216;2024-03-17T06:55:20;101165.63;;;24.83;44.08
73205;BME280;61413;-27.702;153.216;2024-03-17T06:57:49;101166.60;;;24.85;44.23
73205;BME280;61413;-27.702;153.216;2024-03-17T07:00:17;101170.73;;;24.63;43.99
73205;BME280;61413;-27.702;153.216;2024-03-17T07:02:48;101174.85;;;24.46;44.17
73205;BME280;61413;-27.702;153.216;2024-03-17T07:05:14;101179.30;;;24.47;44.08
73205;BME280;61413;-27.702;153.216;2024-03-17T07:07:38;101180.44;;;24.34;44.11
73205;BME280;61413;-27.702;153.216;2024-03-17T07:10:09;101180.07;;;24.32;44.44
73205;BME280;61413;-27.702;153.216;2024-03-17T07:12:33;101182.20;;;23.86;44.70
73205;BME280;61413;-27.702;153.216;2024-03-17T07:15:02;101187.11;;;23.42;45.21
73205;BME280;61413;-27.702;153.216;2024-03-17T07:17:29;101190.08;;;23.64;45.52
73205;BME280;61413;-27.702;153.216;2024-03-17T07:19:57;101191.33;;;22.95;46.07
73205;BME280;61413;-27.702;153.216;2024-03-17T07:22:25;101186.28;;;22.82;46.71
73205;BME280;61413;-27.702;153.216;2024-03-17T07:24:53;101188.43;;;22.35;47.12
73205;BME280;61413;-27.702;153.216;2024-03-17T07:27:22;101200.63;;;22.45;47.89
73205;BME280;61413;-27.702;153.216;2024-03-17T07:29:47;101198.93;;;22.36;48.97
73205;BME280;61413;-27.702;153.216;2024-03-17T07:32:14;101203.53;;;22.27;50.13
73205;BME280;61413;-27.702;153.216;2024-03-17T07:34:42;101200.67;;;21.78;50.20
73205;BME280;61413;-27.702;153.216;2024-03-17T07:37:10;101201.93;;;21.84;50.95
73205;BME280;61413;-27.702;153.216;2024-03-17T07:39:38;101202.64;;;21.85;51.28
73205;BME280;61413;-27.702;153.216;2024-03-17T07:42:07;101201.32;;;22.04;51.27
73205;BME280;61413;-27.702;153.216;2024-03-17T07:44:34;101200.65;;;21.68;51.51
73205;BME280;61413;-27.702;153.216;2024-03-17T07:47:02;101205.91;;;22.02;51.56
73205;BME280;61413;-27.702;153.216;2024-03-17T07:49:30;101214.98;;;21.75;51.56
73205;BME280;61413;-27.702;153.216;2024-03-17T07:52:53;101224.15;;;22.22;51.28
73205;BME280;61413;-27.702;153.216;2024-03-17T07:55:21;101224.58;;;21.94;51.86
73205;BME280;61413;-27.702;153.216;2024-03-17T07:59:20;101221.98;;;21.84;51.97
73205;BME280;61413;-27.702;153.216;2024-03-17T08:01:48;101221.10;;;21.66;51.99
73205;BME280;61413;-27.702;153.216;2024-03-17T08:04:16;101225.84;;;21.98;51.64
73205;BME280;61413;-27.702;153.216;2024-03-17T08:06:44;101231.70;;;21.78;51.68
73205;BME280;61413;-27.702;153.216;2024-03-17T08:09:12;101232.32;;;21.85;51.66
73205;BME280;61413;-27.702;153.216;2024-03-17T08:11:40;101234.99;;;21.45;52.07
73205;BME280;61413;-27.702;153.216;2024-03-17T08:14:08;101236.96;;;21.58;51.90
73205;BME280;61413;-27.702;153.216;2024-03-17T08:16:36;101240.45;;;21.69;52.03
73205;BME280;61413;-27.702;153.216;2024-03-17T08:19:03;101246.96;;;21.78;51.81
73205;BME280;61413;-27.702;153.216;2024-03-17T08:21:31;101250.55;;;21.64;52.14
73205;BME280;61413;-27.702;153.216;2024-03-17T08:23:59;101252.59;;;21.55;52.17
73205;BME280;61413;-27.702;153.216;2024-03-17T08:26:27;101255.19;;;21.89;52.13
73205;BME280;61413;-27.702;153.216;2024-03-17T08:28:54;101256.27;;;21.84;52.11
73205;BME280;61413;-27.702;153.216;2024-03-17T08:31:23;101253.35;;;21.92;50.95
73205;BME280;61413;-27.702;153.216;2024-03-17T08:33:51;101247.97;;;21.10;50.85
73205;BME280;61413;-27.702;153.216;2024-03-17T08:36:20;101244.34;;;21.36;50.69
73205;BME280;61413;-27.702;153.216;2024-03-17T08:38:44;101240.33;;;21.21;51.00
73205;BME280;61413;-27.702;153.216;2024-03-17T08:41:12;101242.01;;;21.50;50.85
73205;BME280;61413;-27.702;153.216;2024-03-17T08:43:40;101248.75;;;21.26;50.98
73205;BME280;61413;-27.702;153.216;2024-03-17T08:46:09;101251.62;;;21.30;51.02
73205;BME280;61413;-27.702;153.216;2024-03-17T08:51:16;101255.97;;;21.70;51.08
73205;BME280;61413;-27.702;153.216;2024-03-17T08:53:46;101260.56;;;21.36;51.22
73205;BME280;61413;-27.702;153.216;2024-03-17T08:56:13;101264.93;;;21.84;51.30
73205;BME280;61413;-27.702;153.216;2024-03-17T08:58:41;101266.01;;;21.41;51.28
73205;BME280;61413;-27.702;153.216;2024-03-17T09:01:09;101265.85;;;21.67;51.22
73205;BME280;61413;-27.702;153.216;2024-03-17T09:03:37;101266.12;;;21.68;51.18
73205;BME280;61413;-27.702;153.216;2024-03-17T09:06:11;101265.83;;;21.51;51.36
73205;BME280;61413;-27.702;153.216;2024-03-17T09:08:33;101265.78;;;21.41;51.39
73205;BME280;61413;-27.702;153.216;2024-03-17T09:11:01;101264.16;;;21.64;51.33
73205;BME280;61413;-27.702;153.216;2024-03-17T09:13:28;101269.58;;;21.41;51.25
73205;BME280;61413;-27.702;153.216;2024-03-17T09:15:58;101271.82;;;21.77;51.18
73205;BME280;61413;-27.702;153.216;2024-03-17T09:20:36;101269.67;;;21.68;51.55
73205;BME280;61413;-27.702;153.216;2024-03-17T09:23:04;101272.15;;;21.72;51.38
73205;BME280;61413;-27.702;153.216;2024-03-17T09:25:32;101271.41;;;21.67;51.46
73205;BME280;61413;-27.702;153.216;2024-03-17T09:27:59;101272.90;;;21.78;51.64
73205;BME280;61413;-27.702;153.216;2024-03-17T09:30:27;101272.46;;;21.84;51.57
73205;BME280;61413;-27.702;153.216;2024-03-17T09:32:55;101272.93;;;21.75;51.74
73205;BME280;61413;-27.702;153.216;2024-03-17T09:35:24;101274.51;;;21.76;51.68
73205;BME280;61413;-27.702;153.216;2024-03-17T09:37:51;101279.90;;;21.88;51.64
73205;BME280;61413;-27.702;153.216;2024-03-17T09:40:19;101283.16;;;21.71;51.60
73205;BME280;61413;-27.702;153.216;2024-03-17T09:42:47;101285.27;;;21.79;51.44
73205;BME280;61413;-27.702;153.216;2024-03-17T09:45:17;101286.70;;;22.06;51.35
73205;BME280;61413;-27.702;153.216;2024-03-17T09:47:42;101286.97;;;21.47;51.57
73205;BME280;61413;-27.702;153.216;2024-03-17T09:51:24;101293.23;;;21.64;51.42
73205;BME280;61413;-27.702;153.216;2024-03-17T09:53:49;101295.06;;;21.57;51.18
73205;BME280;61413;-27.702;153.216;2024-03-17T09:56:17;101301.56;;;21.71;51.09
73205;BME280;61413;-27.702;153.216;2024-03-17T09:58:41;101302.09;;;21.74;51.15
73205;BME280;61413;-27.702;153.216;2024-03-17T10:01:08;101306.07;;;22.05;51.11
73205;BME280;61413;-27.702;153.216;2024-03-17T10:03:45;101305.24;;;21.68;51.23
73205;BME280;61413;-27.702;153.216;2024-03-17T10:08:31;101302.20;;;21.83;51.51
73205;BME280;61413;-27.702;153.216;2024-03-17T10:10:58;101305.75;;;21.99;51.34
73205;BME280;61413;-27.702;153.216;2024-03-17T10:13:26;101310.51;;;22.09;51.19
73205;BME280;61413;-27.702;153.216;2024-03-17T10:15:54;101313.80;;;21.96;50.96
73205;BME280;61413;-27.702;153.216;2024-03-17T10:18:23;101317.63;;;21.97;50.98
73205;BME280;61413;-27.702;153.216;2024-03-17T10:20:47;101317.77;;;22.12;50.85
73205;BME280;61413;-27.702;153.216;2024-03-17T10:23:14;101318.20;;;21.69;50.78
73205;BME280;61413;-27.702;153.216;2024-03-17T10:25:42;101320.34;;;22.09;50.57
73205;BME280;61413;-27.702;153.216;2024-03-17T10:28:13;101324.95;;;22.14;50.55
73205;BME280;61413;-27.702;153.216;2024-03-17T10:30:37;101329.77;;;22.00;50.45
73205;BME280;61413;-27.702;153.216;2024-03-17T10:33:07;101333.45;;;22.12;50.52
73205;BME280;61413;-27.702;153.216;2024-03-17T10:35:33;101335.74;;;22.17;50.62
73205;BME280;61413;-27.702;153.216;2024-03-17T10:37:58;101342.89;;;22.13;50.65
73205;BME280;61413;-27.702;153.216;2024-03-17T10:40:23;101344.72;;;21.92;50.49
73205;BME280;61413;-27.702;153.216;2024-03-17T10:42:52;101349.55;;;22.33;50.55
73205;BME280;61413;-27.702;153.216;2024-03-17T10:45:20;101355.25;;;21.95;50.54
73205;BME280;61413;-27.702;153.216;2024-03-17T10:47:50;101358.70;;;22.05;50.66
73205;BME280;61413;-27.702;153.216;2024-03-17T10:50:19;101361.34;;;21.75;50.70
73205;BME280;61413;-27.702;153.216;2024-03-17T10:52:46;101360.30;;;21.98;50.63
73205;BME280;61413;-27.702;153.216;2024-03-17T10:55:15;101357.64;;;22.09;50.68
73205;BME280;61413;-27.702;153.216;2024-03-17T10:57:46;101358.92;;;21.68;50.71
73205;BME280;61413;-27.702;153.216;2024-03-17T11:00:10;101358.90;;;21.63;50.61
73205;BME280;61413;-27.702;153.216;2024-03-17T11:02:32;101358.58;;;22.05;50.58
73205;BME280;61413;-27.702;153.216;2024-03-17T11:05:02;101359.25;;;21.55;50.76
73205;BME280;61413;-27.702;153.216;2024-03-17T11:07:27;101363.45;;;22.03;51.02
73205;BME280;61413;-27.702;153.216;2024-03-17T11:09:54;101368.84;;;21.82;50.98
73205;BME280;61413;-27.702;153.216;2024-03-17T11:12:50;101372.34;;;21.93;51.04
73205;BME280;61413;-27.702;153.216;2024-03-17T11:14:46;101372.58;;;21.63;51.29
73205;BME280;61413;-27.702;153.216;2024-03-17T11:17:19;101370.99;;;21.98;51.19
73205;BME280;61413;-27.702;153.216;2024-03-17T11:19:42;101372.03;;;21.75;50.85
73205;BME280;61413;-27.702;153.216;2024-03-17T11:22:43;101376.39;;;21.82;50.87
73205;BME280;61413;-27.702;153.216;2024-03-17T11:24:36;101383.95;;;21.71;50.85
73205;BME280;61413;-27.702;153.216;2024-03-17T11:27:40;101387.73;;;21.78;51.04
73205;BME280;61413;-27.702;153.216;2024-03-17T11:29:30;101382.92;;;21.82;51.35
73205;BME280;61413;-27.702;153.216;2024-03-17T11:31:58;101383.99;;;21.67;51.28
73205;BME280;61413;-27.702;153.216;2024-03-17T11:34:31;101390.31;;;21.76;51.16
73205;BME280;61413;-27.702;153.216;2024-03-17T11:36:52;101391.16;;;21.77;51.08
73205;BME280;61413;-27.702;153.216;2024-03-17T11:39:16;101394.46;;;21.78;51.52
73205;BME280;61413;-27.702;153.216;2024-03-17T11:41:45;101400.99;;;21.60;51.54
73205;BME280;61413;-27.702;153.216;2024-03-17T11:44:23;101407.30;;;21.65;51.45
73205;BME280;61413;-27.702;153.216;2024-03-17T11:46:35;101410.92;;;21.71;51.28
73205;BME280;61413;-27.702;153.216;2024-03-17T11:49:06;101414.78;;;21.59;51.12
73205;BME280;61413;-27.702;153.216;2024-03-17T11:51:29;101415.16;;;21.71;51.10
73205;BME280;61413;-27.702;153.216;2024-03-17T11:54:00;101416.85;;;21.48;50.85
73205;BME280;61413;-27.702;153.216;2024-03-17T11:56:25;101416.49;;;21.68;50.75
73205;BME280;61413;-27.702;153.216;2024-03-17T11:59:05;101414.71;;;21.82;50.54
73205;BME280;61413;-27.702;153.216;2024-03-17T12:01:16;101413.93;;;21.83;50.46
73205;BME280;61413;-27.702;153.216;2024-03-17T12:03:44;101409.10;;;21.91;50.45
73205;BME280;61413;-27.702;153.216;2024-03-17T12:06:15;101405.15;;;21.95;50.38
73205;BME280;61413;-27.702;153.216;2024-03-17T12:08:39;101406.18;;;22.08;50.25
73205;BME280;61413;-27.702;153.216;2024-03-17T12:14:53;101399.96;;;21.90;50.55
73205;BME280;61413;-27.702;153.216;2024-03-17T12:17:23;101402.59;;;21.60;50.38
73205;BME280;61413;-27.702;153.216;2024-03-17T12:19:47;101402.19;;;21.80;50.20
73205;BME280;61413;-27.702;153.216;2024-03-17T12:22:18;101402.91;;;22.04;50.08
73205;BME280;61413;-27.702;153.216;2024-03-17T12:24:42;101406.10;;;21.91;49.84
73205;BME280;61413;-27.702;153.216;2024-03-17T12:27:18;101404.48;;;21.82;50.01
73205;BME280;61413;-27.702;153.216;2024-03-17T12:29:39;101407.25;;;21.53;50.18
73205;BME280;61413;-27.702;153.216;2024-03-17T12:32:10;101409.62;;;21.87;50.13
73205;BME280;61413;-27.702;153.216;2024-03-17T12:34:33;101410.88;;;21.92;50.26
73205;BME280;61413;-27.702;153.216;2024-03-17T12:36:58;101412.31;;;21.93;50.35
73205;BME280;61413;-27.702;153.216;2024-03-17T12:39:24;101414.87;;;21.68;50.43
73205;BME280;61413;-27.702;153.216;2024-03-17T12:42:03;101413.61;;;21.48;50.61
73205;BME280;61413;-27.702;153.216;2024-03-17T12:44:23;101413.66;;;21.42;50.88
73205;BME280;61413;-27.702;153.216;2024-03-17T12:46:42;101418.13;;;21.28;51.11
73205;BME280;61413;-27.702;153.216;2024-03-17T12:49:11;101418.96;;;21.24;51.25
73205;BME280;61413;-27.702;153.216;2024-03-17T12:51:36;101418.61;;;21.21;51.43
73205;BME280;61413;-27.702;153.216;2024-03-17T12:54:22;101418.32;;;20.76;51.56
73205;BME280;61413;-27.702;153.216;2024-03-17T12:56:29;101419.80;;;21.51;51.68
73205;BME280;61413;-27.702;153.216;2024-03-17T12:59:07;101417.18;;;21.34;51.79